createdAt,value
2023-09-08T00:01:47.904Z,7.72
2023-09-08T00:04:17.859Z,7.88
2023-09-08T00:06:47.265Z,8.90
2023-09-08T00:09:18.117Z,8.02
2023-09-08T00:11:46.999Z,8.45
2023-09-08T00:14:16.299Z,8.38
2023-09-08T00:16:45.811Z,8.20
2023-09-08T00:19:15.305Z,7.82
2023-09-08T00:21:45.329Z,8.30
2023-09-08T00:24:14.719Z,7.63
2023-09-08T00:26:45.354Z,8.02
2023-09-08T00:29:14.788Z,8.10
2023-09-08T00:31:44.230Z,8.60
2023-09-08T00:34:13.191Z,7.90
2023-09-08T00:36:42.067Z,8.70
2023-09-08T00:39:11.160Z,8.25
2023-09-08T00:41:40.610Z,8.50
2023-09-08T00:44:12.839Z,8.38
2023-09-08T00:46:42.604Z,7.70
2023-09-08T00:49:12.644Z,7.70
2023-09-08T00:51:42.701Z,7.80
2023-09-08T00:54:11.854Z,8.73
2023-09-08T00:56:41.571Z,8.20
2023-09-08T00:59:12.005Z,7.95
2023-09-08T01:01:40.919Z,9.23
2023-09-08T01:04:10.774Z,8.68
2023-09-08T01:06:40.143Z,8.07
2023-09-08T01:09:09.584Z,8.20
2023-09-08T01:11:38.451Z,7.75
2023-09-08T01:14:07.330Z,8.75
2023-09-08T01:16:41.839Z,8.00
2023-09-08T01:19:15.250Z,8.13
2023-09-08T01:22:33.432Z,8.55
2023-09-08T01:25:16.317Z,9.07
2023-09-08T01:27:49.782Z,8.63
2023-09-08T01:30:18.938Z,8.95
2023-09-08T01:32:49.061Z,8.10
2023-09-08T01:35:18.387Z,7.97
2023-09-08T01:37:48.358Z,8.60
2023-09-08T01:40:20.091Z,8.75
2023-09-08T01:42:50.968Z,8.27
2023-09-08T01:45:20.098Z,8.40
2023-09-08T01:47:49.914Z,8.60
2023-09-08T01:50:22.984Z,7.93
2023-09-08T01:52:51.950Z,8.10
2023-09-08T01:55:22.175Z,8.60
2023-09-08T01:57:52.056Z,8.63
2023-09-08T02:00:21.105Z,8.48
2023-09-08T02:02:50.763Z,8.73
2023-09-08T02:05:20.190Z,8.23
2023-09-08T02:07:49.151Z,8.50
2023-09-08T02:10:18.267Z,7.72
2023-09-08T02:12:50.553Z,8.70
2023-09-08T02:15:20.079Z,8.73
2023-09-08T02:17:51.378Z,8.60
2023-09-08T02:20:21.030Z,9.20
2023-09-08T02:22:51.667Z,8.25
2023-09-08T02:25:20.851Z,8.65
2023-09-08T02:27:51.095Z,8.70
2023-09-08T02:30:20.408Z,8.60
2023-09-08T02:32:49.349Z,8.98
2023-09-08T02:35:18.789Z,8.75
2023-09-08T02:37:48.263Z,9.00
2023-09-08T02:40:17.389Z,8.18
2023-09-08T02:42:46.824Z,8.63
2023-09-08T02:45:18.160Z,8.70
2023-09-08T02:47:47.691Z,9.32
2023-09-08T02:50:16.974Z,8.77
2023-09-08T02:52:46.346Z,9.07
2023-09-08T02:55:15.141Z,9.13
2023-09-08T02:57:44.441Z,8.35
2023-09-08T03:00:14.358Z,9.02
2023-09-08T03:02:44.841Z,8.75
2023-09-08T03:05:14.005Z,8.80
2023-09-08T03:07:42.965Z,9.00
2023-09-08T03:10:13.095Z,8.55
2023-09-08T03:12:42.087Z,9.30
2023-09-08T03:15:11.717Z,8.90
2023-09-08T03:17:41.456Z,8.55
2023-09-08T03:20:15.472Z,8.73
2023-09-08T03:22:44.429Z,8.70
2023-09-08T03:25:13.536Z,8.55
2023-09-08T03:27:42.616Z,8.48
2023-09-08T03:30:12.934Z,8.73
2023-09-08T03:32:41.927Z,8.57
2023-09-08T03:35:12.777Z,8.98
2023-09-08T03:37:42.487Z,8.80
2023-09-08T03:40:12.425Z,9.30
2023-09-08T03:42:42.762Z,9.35
2023-09-08T03:45:12.146Z,8.60
2023-09-08T03:47:43.693Z,8.90
2023-09-08T03:50:14.208Z,9.32
2023-09-08T03:52:43.716Z,9.27
2023-09-08T03:55:13.842Z,9.27
2023-09-08T03:57:42.730Z,8.63
2023-09-08T04:00:20.568Z,10.30
2023-09-08T04:02:50.117Z,9.38
2023-09-08T04:05:21.505Z,9.35
2023-09-08T04:07:50.591Z,10.07
2023-09-08T04:10:20.425Z,10.00
2023-09-08T04:12:49.398Z,9.73
2023-09-08T04:15:18.540Z,10.65
2023-09-08T04:17:48.429Z,9.70
2023-09-08T04:20:17.922Z,9.23
2023-09-08T04:22:48.824Z,9.20
2023-09-08T04:25:18.456Z,10.07
2023-09-08T04:27:47.460Z,9.18
2023-09-08T04:30:16.759Z,9.25
2023-09-08T04:32:46.053Z,9.80
2023-09-08T04:35:14.836Z,9.57
2023-09-08T04:37:43.854Z,10.15
2023-09-08T04:40:14.265Z,9.02
2023-09-08T04:42:43.301Z,9.38
2023-09-08T04:45:12.757Z,10.10
2023-09-08T04:47:41.746Z,9.93
2023-09-08T04:50:11.708Z,9.70
2023-09-08T04:52:40.777Z,9.82
2023-09-08T04:55:11.013Z,9.98
2023-09-08T04:57:41.332Z,10.93
2023-09-08T05:00:13.003Z,9.95
2023-09-08T05:02:42.248Z,10.18
2023-09-08T05:05:11.189Z,10.10
2023-09-08T05:07:40.288Z,10.63
2023-09-08T05:10:09.603Z,10.23
2023-09-08T05:12:42.117Z,9.77
2023-09-08T05:15:16.285Z,10.95
2023-09-08T05:17:49.390Z,10.63
2023-09-08T05:20:21.529Z,10.18
2023-09-08T05:22:50.531Z,11.57
2023-09-08T05:25:20.299Z,11.00
2023-09-08T05:27:51.188Z,10.68
2023-09-08T05:30:20.376Z,10.85
2023-09-08T05:32:50.112Z,10.98
2023-09-08T05:35:19.796Z,10.15
2023-09-08T05:37:49.805Z,10.63
2023-09-08T05:40:17.991Z,11.15
2023-09-08T05:42:46.891Z,10.75
2023-09-08T05:45:17.433Z,11.50
2023-09-08T05:47:46.770Z,10.25
2023-09-08T05:50:15.828Z,11.45
2023-09-08T05:52:44.775Z,11.25
2023-09-08T05:55:14.244Z,11.70
2023-09-08T05:57:43.141Z,12.95
2023-09-08T06:00:13.697Z,11.55
2023-09-08T06:02:46.338Z,11.35
2023-09-08T06:05:17.374Z,12.00
2023-09-08T06:07:57.199Z,11.93
2023-09-08T06:10:34.308Z,11.35
2023-09-08T06:13:03.797Z,11.68
2023-09-08T06:15:33.267Z,11.63
2023-09-08T06:18:05.563Z,11.50
2023-09-08T06:20:34.606Z,12.43
2023-09-08T06:23:04.708Z,12.45
2023-09-08T06:25:34.104Z,11.05
2023-09-08T06:28:02.891Z,11.57
2023-09-08T06:30:31.882Z,12.05
2023-09-08T06:33:00.983Z,11.13
2023-09-08T06:35:32.842Z,11.63
2023-09-08T06:38:01.835Z,11.80
2023-09-08T06:40:32.065Z,11.60
2023-09-08T06:43:02.984Z,10.10
2023-09-08T06:45:59.661Z,9.90
2023-09-08T06:48:29.595Z,10.70
2023-09-08T06:51:00.126Z,11.23
2023-09-08T06:53:30.204Z,10.98
2023-09-08T06:55:59.926Z,12.00
2023-09-08T06:58:28.922Z,11.70
2023-09-08T07:00:58.888Z,12.02
2023-09-08T07:03:28.726Z,12.43
2023-09-08T07:06:00.322Z,12.70
2023-09-08T07:08:29.738Z,12.75
2023-09-08T07:11:00.083Z,11.20
2023-09-08T07:13:29.359Z,11.85
2023-09-08T07:15:59.570Z,13.35
2023-09-08T07:18:29.760Z,13.00
2023-09-08T07:21:00.318Z,11.20
2023-09-08T07:23:29.430Z,11.95
2023-09-08T07:25:58.614Z,12.50
2023-09-08T07:28:31.495Z,13.05
2023-09-08T07:31:04.841Z,12.30
2023-09-08T07:33:35.878Z,12.40
2023-09-08T07:36:11.542Z,12.07
2023-09-08T07:38:42.897Z,11.82
2023-09-08T07:41:11.862Z,11.45
2023-09-08T07:43:42.523Z,11.85
2023-09-08T07:46:15.140Z,11.13
2023-09-08T07:48:44.641Z,10.73
2023-09-08T07:51:15.505Z,11.23
2023-09-08T07:53:44.508Z,10.35
2023-09-08T07:56:14.170Z,9.73
2023-09-08T07:58:43.085Z,9.88
2023-09-08T08:01:12.441Z,9.75
2023-09-08T08:03:41.606Z,9.00
2023-09-08T08:06:10.879Z,9.43
2023-09-08T08:08:41.763Z,8.07
2023-09-08T08:11:13.377Z,8.20
2023-09-08T08:13:42.781Z,7.82
2023-09-08T08:16:12.571Z,7.90
2023-09-08T08:18:42.208Z,7.80
2023-09-08T08:21:11.261Z,8.13
2023-09-08T08:23:42.577Z,7.70
2023-09-08T08:26:12.017Z,7.60
2023-09-08T08:28:41.604Z,6.78
2023-09-08T08:31:11.059Z,7.47
2023-09-08T08:33:40.529Z,7.53
2023-09-08T08:36:10.996Z,7.28
2023-09-08T08:38:41.826Z,7.50
2023-09-08T08:41:12.176Z,6.82
2023-09-08T08:43:42.542Z,7.22
2023-09-08T08:46:12.512Z,7.22
2023-09-08T08:48:43.055Z,7.38
2023-09-08T08:51:13.683Z,7.10
2023-09-08T08:53:44.726Z,7.38
2023-09-08T08:56:14.327Z,7.38
2023-09-08T08:58:44.349Z,7.88
2023-09-08T09:01:14.526Z,6.50
2023-09-08T09:03:45.272Z,7.88
2023-09-08T09:06:14.752Z,7.57
2023-09-08T09:08:47.915Z,6.72
2023-09-08T09:11:17.956Z,6.68
2023-09-08T09:13:47.526Z,6.38
2023-09-08T09:16:16.874Z,6.57
2023-09-08T09:18:57.579Z,7.13
2023-09-08T09:21:27.418Z,6.65
2023-09-08T09:23:58.015Z,7.00
2023-09-08T09:26:28.682Z,7.28
2023-09-08T09:29:00.444Z,6.90
2023-09-08T09:31:30.872Z,6.75
2023-09-08T09:34:07.447Z,6.50
2023-09-08T09:36:42.067Z,6.35
2023-09-08T09:39:13.113Z,6.25
2023-09-08T09:41:43.126Z,6.30
2023-09-08T09:44:12.856Z,5.95
2023-09-08T09:46:46.839Z,6.32
2023-09-08T09:49:18.082Z,6.68
2023-09-08T09:51:50.420Z,6.70
2023-09-08T09:54:21.719Z,6.43
2023-09-08T09:56:52.670Z,5.85
2023-09-08T09:59:23.807Z,5.93
2023-09-08T10:01:54.654Z,5.80
2023-09-08T10:04:24.897Z,6.47
2023-09-08T10:06:55.615Z,5.72
2023-09-08T10:09:26.546Z,6.07
2023-09-08T10:12:01.848Z,6.30
2023-09-08T10:14:32.725Z,6.40
2023-09-08T10:17:04.098Z,5.78
2023-09-08T10:19:43.650Z,6.18
2023-09-08T10:22:18.163Z,6.18
2023-09-08T10:24:51.346Z,5.68
2023-09-08T10:27:24.960Z,6.10
2023-09-08T10:29:55.699Z,5.68
2023-09-08T10:32:25.452Z,5.70
2023-09-08T10:34:58.735Z,5.57
2023-09-08T10:37:30.562Z,4.97
2023-09-08T10:40:25.243Z,5.60
2023-09-08T10:43:09.285Z,5.45
2023-09-08T10:45:39.146Z,5.45
2023-09-08T10:48:09.350Z,6.00
2023-09-08T10:50:42.253Z,5.55
2023-09-08T10:53:20.936Z,5.88
2023-09-08T10:56:11.268Z,5.93
2023-09-08T10:58:45.044Z,5.75
2023-09-08T11:01:28.919Z,5.70
2023-09-08T11:04:00.257Z,5.40
2023-09-08T11:06:31.715Z,5.50
2023-09-08T11:09:09.220Z,4.85
2023-09-08T11:11:39.645Z,5.20
2023-09-08T11:14:08.599Z,4.88
2023-09-08T11:16:38.459Z,5.43
2023-09-08T11:19:07.822Z,5.60
2023-09-08T11:21:38.950Z,5.55
2023-09-08T11:24:16.224Z,5.57
2023-09-08T11:26:52.433Z,5.65
2023-09-08T11:29:23.373Z,5.43
2023-09-08T11:31:58.915Z,5.35
2023-09-08T11:34:29.936Z,5.72
2023-09-08T11:37:04.911Z,4.90
2023-09-08T11:39:40.236Z,4.35
2023-09-08T11:42:12.388Z,4.18
2023-09-08T11:44:45.357Z,3.38
2023-09-08T11:47:18.577Z,4.07
2023-09-08T11:49:50.960Z,4.22
2023-09-08T11:52:21.911Z,4.00
2023-09-08T11:55:06.355Z,3.38
2023-09-08T11:57:39.545Z,3.72
2023-09-08T12:00:12.213Z,3.90
2023-09-08T12:02:41.746Z,3.55
2023-09-08T12:05:14.775Z,3.80
2023-09-08T12:07:44.310Z,4.10
2023-09-08T12:10:15.179Z,4.40
2023-09-08T12:12:46.755Z,4.40
2023-09-08T12:15:37.293Z,4.35
2023-09-08T12:18:11.146Z,5.00
2023-09-08T12:20:47.975Z,4.35
2023-09-08T12:23:21.354Z,4.82
2023-09-08T12:25:54.893Z,5.15
2023-09-08T12:28:34.864Z,4.65
2023-09-08T12:31:04.708Z,4.80
2023-09-08T12:33:34.566Z,4.75
2023-09-08T12:36:13.125Z,4.75
2023-09-08T12:38:41.981Z,4.68
2023-09-08T12:41:11.380Z,5.63
2023-09-08T12:43:45.195Z,4.97
2023-09-08T12:46:14.847Z,4.93
2023-09-08T12:48:44.312Z,4.63
2023-09-08T12:51:13.714Z,4.88
2023-09-08T12:53:43.254Z,4.22
2023-09-08T12:56:12.613Z,4.60
2023-09-08T12:58:43.369Z,4.53
2023-09-08T13:01:12.769Z,4.60
2023-09-08T13:03:41.685Z,5.15
2023-09-08T13:06:14.156Z,4.40
2023-09-08T13:08:46.704Z,4.70
2023-09-08T13:11:15.648Z,4.85
2023-09-08T13:13:49.121Z,4.75
2023-09-08T13:16:21.924Z,4.57
2023-09-08T13:18:55.505Z,4.65
2023-09-08T13:21:28.148Z,4.85
2023-09-08T13:24:02.368Z,4.97
2023-09-08T13:26:31.349Z,4.85
2023-09-08T13:29:02.210Z,4.63
2023-09-08T13:31:31.881Z,4.20
2023-09-08T13:34:04.404Z,4.25
2023-09-08T13:36:34.952Z,4.35
2023-09-08T13:39:04.777Z,4.15
2023-09-08T13:41:47.678Z,4.28
2023-09-08T13:44:19.355Z,4.30
2023-09-08T13:46:51.428Z,4.25
2023-09-08T13:49:26.257Z,4.45
2023-09-08T13:52:01.395Z,4.43
2023-09-08T13:54:39.792Z,4.25
2023-09-08T13:57:14.224Z,3.90
2023-09-08T13:59:49.416Z,4.30
2023-09-08T14:04:55.721Z,4.20
2023-09-08T14:07:27.988Z,4.20
2023-09-08T14:10:06.115Z,4.10
2023-09-08T14:12:45.522Z,4.43
2023-09-08T14:15:17.596Z,4.32
2023-09-08T14:17:46.550Z,4.20
2023-09-08T14:20:15.517Z,4.00
2023-09-08T14:22:44.593Z,4.38
2023-09-08T14:25:13.484Z,4.57
2023-09-08T14:27:42.526Z,4.80
2023-09-08T14:30:11.587Z,4.40
2023-09-08T14:32:41.919Z,4.25
2023-09-08T14:35:11.720Z,4.30
2023-09-08T14:37:40.711Z,4.50
2023-09-08T14:40:10.844Z,4.88
2023-09-08T14:42:39.806Z,4.45
2023-09-08T14:45:09.824Z,4.45
2023-09-08T14:47:38.706Z,4.60
2023-09-08T14:50:10.478Z,4.72
2023-09-08T14:52:41.247Z,5.10
2023-09-08T14:55:11.498Z,4.85
2023-09-08T14:57:41.011Z,4.57
2023-09-08T15:00:11.609Z,4.90
2023-09-08T15:02:41.099Z,4.47
2023-09-08T15:05:12.356Z,4.60
2023-09-08T15:07:41.960Z,4.13
2023-09-08T15:10:11.992Z,4.55
2023-09-08T15:12:41.387Z,4.20
2023-09-08T15:15:11.761Z,4.47
2023-09-08T15:17:40.641Z,5.00
2023-09-08T15:20:12.036Z,4.63
2023-09-08T15:22:40.950Z,5.00
2023-09-08T15:25:10.862Z,4.97
2023-09-08T15:27:39.764Z,4.65
2023-09-08T15:30:10.192Z,5.25
2023-09-08T15:32:40.088Z,5.03
2023-09-08T15:35:12.100Z,4.75
2023-09-08T15:37:41.069Z,4.60
2023-09-08T15:40:15.114Z,4.47
2023-09-08T15:42:44.698Z,4.78
2023-09-08T15:45:13.594Z,5.28
2023-09-08T15:47:43.032Z,4.70
2023-09-08T15:50:13.793Z,4.88
2023-09-08T15:52:42.859Z,4.47
2023-09-08T15:55:13.228Z,4.80
2023-09-08T15:57:42.144Z,4.70
2023-09-08T16:00:12.623Z,5.35
2023-09-08T16:02:42.080Z,5.18
2023-09-08T16:05:13.322Z,4.82
2023-09-08T16:07:43.840Z,5.15
2023-09-08T16:10:13.563Z,4.80
2023-09-08T16:12:43.117Z,5.38
2023-09-08T16:15:12.876Z,4.78
2023-09-08T16:17:42.002Z,4.65
2023-09-08T16:20:11.828Z,4.55
2023-09-08T16:22:42.834Z,4.80
2023-09-08T16:25:11.719Z,5.00
2023-09-08T16:27:41.020Z,5.03
2023-09-08T16:30:11.151Z,5.38
2023-09-08T16:32:41.111Z,5.20
2023-09-08T16:35:11.185Z,5.30
2023-09-08T16:37:40.576Z,5.60
2023-09-08T16:40:12.350Z,5.38
2023-09-08T16:42:41.691Z,5.13
2023-09-08T16:45:13.681Z,5.30
2023-09-08T16:47:44.047Z,4.75
2023-09-08T16:50:13.439Z,5.53
2023-09-08T16:52:42.917Z,5.40
2023-09-08T16:55:15.326Z,5.28
2023-09-08T16:57:44.712Z,5.38
2023-09-08T17:00:14.689Z,5.40
2023-09-08T17:02:44.244Z,5.30
2023-09-08T17:05:16.210Z,6.00
2023-09-08T17:07:45.509Z,4.97
2023-09-08T17:10:16.335Z,5.75
2023-09-08T17:12:46.038Z,6.20
2023-09-08T17:15:15.710Z,5.90
2023-09-08T17:17:44.997Z,5.32
2023-09-08T17:20:14.988Z,5.68
2023-09-08T17:22:44.400Z,5.75
2023-09-08T17:25:15.532Z,5.53
2023-09-08T17:27:45.815Z,5.88
2023-09-08T17:30:15.472Z,5.68
2023-09-08T17:32:44.779Z,5.90
2023-09-08T17:35:14.537Z,5.32
2023-09-08T17:37:43.794Z,5.57
2023-09-08T17:40:15.112Z,5.68
2023-09-08T17:42:44.521Z,5.30
2023-09-08T17:45:13.426Z,6.30
2023-09-08T17:47:42.891Z,5.65
2023-09-08T17:50:12.553Z,5.60
2023-09-08T17:52:43.797Z,5.25
2023-09-08T17:55:13.232Z,5.88
2023-09-08T17:57:43.556Z,6.70
2023-09-08T18:00:13.632Z,5.95
2023-09-08T18:02:42.991Z,5.90
2023-09-08T18:05:12.651Z,6.18
2023-09-08T18:07:41.952Z,5.38
2023-09-08T18:10:14.164Z,5.88
2023-09-08T18:12:45.086Z,5.68
2023-09-08T18:15:14.685Z,5.82
2023-09-08T18:17:46.658Z,5.93
2023-09-08T18:20:16.256Z,5.63
2023-09-08T18:22:45.522Z,5.90
2023-09-08T18:25:14.961Z,5.85
2023-09-08T18:27:48.258Z,6.22
2023-09-08T18:30:17.763Z,5.85
2023-09-08T18:32:46.960Z,5.93
2023-09-08T18:35:16.948Z,5.85
2023-09-08T18:37:45.778Z,6.25
2023-09-08T18:40:15.157Z,6.45
2023-09-08T18:42:45.822Z,5.72
2023-09-08T18:45:15.834Z,6.10
2023-09-08T18:47:45.302Z,6.82
2023-09-08T18:50:14.727Z,6.90
2023-09-08T18:52:44.267Z,6.22
2023-09-08T18:55:13.850Z,6.32
2023-09-08T18:57:42.738Z,6.82
2023-09-08T19:00:15.021Z,6.32
2023-09-08T19:02:44.581Z,7.10
2023-09-08T19:05:14.006Z,6.63
2023-09-08T19:07:43.571Z,6.65
2023-09-08T19:10:13.134Z,6.63
2023-09-08T19:12:42.450Z,7.35
2023-09-08T19:15:13.158Z,7.78
2023-09-08T19:17:42.063Z,7.88
2023-09-08T19:20:11.776Z,8.48
2023-09-08T19:22:40.694Z,7.53
2023-09-08T19:25:10.856Z,7.85
2023-09-08T19:27:40.378Z,7.72
2023-09-08T19:30:11.860Z,7.63
2023-09-08T19:32:42.498Z,7.50
2023-09-08T19:35:12.496Z,7.55
2023-09-08T19:37:41.604Z,7.18
2023-09-08T19:40:11.041Z,7.32
2023-09-08T19:42:40.056Z,7.65
2023-09-08T19:45:10.443Z,7.63
2023-09-08T19:47:41.292Z,8.15
2023-09-08T19:50:11.507Z,7.50
2023-09-08T19:52:41.745Z,7.68
2023-09-08T19:55:11.406Z,7.53
2023-09-08T19:57:40.559Z,7.18
2023-09-08T20:00:11.195Z,7.22
2023-09-08T20:02:45.768Z,7.20
2023-09-08T20:05:14.861Z,7.38
2023-09-08T20:07:44.892Z,6.68
2023-09-08T20:10:14.156Z,7.05
2023-09-08T20:12:43.874Z,7.85
2023-09-08T20:15:15.065Z,8.07
2023-09-08T20:17:46.761Z,7.57
2023-09-08T20:20:16.034Z,6.75
2023-09-08T20:22:45.431Z,7.60
2023-09-08T20:25:15.027Z,8.55
2023-09-08T20:27:45.714Z,7.60
2023-09-08T20:30:17.412Z,9.50
2023-09-08T20:32:48.330Z,8.93
2023-09-08T20:35:18.281Z,9.63
2023-09-08T20:37:47.677Z,9.55
2023-09-08T20:40:17.093Z,10.23
2023-09-08T20:42:46.578Z,9.48
2023-09-08T20:45:15.605Z,9.48
2023-09-08T20:47:44.599Z,10.20
2023-09-08T20:50:15.470Z,9.63
2023-09-08T20:52:44.408Z,9.18
2023-09-08T20:55:14.108Z,10.55
2023-09-08T20:57:42.910Z,9.60
2023-09-08T21:00:13.749Z,9.48
2023-09-08T21:02:43.306Z,9.88
2023-09-08T21:05:14.020Z,9.63
2023-09-08T21:07:42.887Z,10.20
2023-09-08T21:10:13.038Z,9.82
2023-09-08T21:12:42.633Z,10.43
2023-09-08T21:15:12.363Z,10.40
2023-09-08T21:17:41.247Z,10.82
2023-09-08T21:20:11.069Z,11.35
2023-09-08T21:22:41.767Z,12.27
2023-09-08T21:25:11.295Z,12.30
2023-09-08T21:27:40.572Z,11.20
2023-09-08T21:30:10.298Z,11.07
2023-09-08T21:32:39.799Z,12.35
2023-09-08T21:35:09.840Z,12.02
2023-09-08T21:37:38.702Z,12.25
2023-09-08T21:40:10.899Z,12.55
2023-09-08T21:42:40.477Z,14.00
2023-09-08T21:45:10.521Z,11.23
2023-09-08T21:47:39.915Z,12.40
2023-09-08T21:50:09.424Z,13.02
2023-09-08T21:52:39.875Z,12.48
2023-09-08T21:55:12.212Z,12.98
2023-09-08T21:57:41.724Z,12.02
2023-09-08T22:00:16.565Z,12.90
2023-09-08T22:02:46.150Z,14.02
2023-09-08T22:05:18.746Z,15.05
2023-09-08T22:07:47.534Z,15.88
2023-09-08T22:10:18.471Z,15.65
2023-09-08T22:12:47.897Z,16.83
2023-09-08T22:15:17.327Z,19.75
2023-09-08T22:17:47.070Z,14.68
2023-09-08T22:20:17.044Z,14.95
2023-09-08T22:22:46.558Z,15.52
2023-09-08T22:25:17.623Z,16.25
2023-09-08T22:27:49.323Z,16.85
2023-09-08T22:30:20.766Z,16.80
2023-09-08T22:32:50.483Z,15.90
2023-09-08T22:35:19.779Z,15.32
2023-09-08T22:37:51.434Z,14.38
2023-09-08T22:40:23.394Z,13.70
2023-09-08T22:42:53.068Z,13.65
2023-09-08T22:45:22.324Z,14.57
2023-09-08T22:47:51.746Z,14.60
2023-09-08T22:50:20.711Z,15.27
2023-09-08T22:52:50.228Z,13.43
2023-09-08T22:55:25.581Z,14.55
2023-09-08T22:57:56.896Z,13.95
2023-09-08T23:00:26.440Z,15.35
2023-09-08T23:02:55.899Z,14.18
2023-09-08T23:05:25.407Z,15.40
2023-09-08T23:07:54.752Z,13.90
2023-09-08T23:10:23.708Z,16.00
2023-09-08T23:12:53.343Z,14.88
2023-09-08T23:15:26.058Z,14.07
2023-09-08T23:17:56.516Z,14.45
2023-09-08T23:20:26.467Z,13.68
2023-09-08T23:22:55.861Z,16.33
2023-09-08T23:25:25.577Z,14.93
2023-09-08T23:27:55.180Z,14.65
2023-09-08T23:30:26.128Z,14.48
2023-09-08T23:32:55.148Z,14.57
2023-09-08T23:35:24.951Z,16.77
2023-09-08T23:37:54.234Z,15.18
2023-09-08T23:40:23.126Z,15.00
2023-09-08T23:42:52.467Z,14.85
2023-09-08T23:45:21.942Z,15.88
2023-09-08T23:47:52.216Z,17.25
2023-09-08T23:50:44.306Z,15.35
2023-09-08T23:53:13.709Z,15.57
2023-09-08T23:55:43.461Z,17.52
2023-09-08T23:58:13.001Z,15.88
